sensor_id;sensor_type;location;lat;lon;timestamp;temperature;humidity
18506;DHT22;9382;53.242;10.438;2023-11-21T00:02:44;9.20;99.90
18506;DHT22;9382;53.242;10.438;2023-11-21T00:05:35;9.30;99.90
18506;DHT22;9382;53.242;10.438;2023-11-21T00:08:05;9.30;99.90
18506;DHT22;9382;53.242;10.438;2023-11-21T00:10:35;9.30;99.90
18506;DHT22;9382;53.242;10.438;2023-11-21T00:13:05;9.30;99.90
18506;DHT22;9382;53.242;10.438;2023-11-21T00:15:43;9.30;99.90
18506;DHT22;9382;53.242;10.438;2023-11-21T00:18:23;9.30;99.90
18506;DHT22;9382;53.242;10.438;2023-11-21T00:20:50;9.30;99.90
18506;DHT22;9382;53.242;10.438;2023-11-21T00:23:34;9.20;99.90
18506;DHT22;9382;53.242;10.438;2023-11-21T00:26:11;9.10;99.90
18506;DHT22;9382;53.242;10.438;2023-11-21T00:31:50;9.00;99.90
18506;DHT22;9382;53.242;10.438;2023-11-21T00:34:29;8.90;99.90
18506;DHT22;9382;53.242;10.438;2023-11-21T00:37:03;8.90;99.90
18506;DHT22;9382;53.242;10.438;2023-11-21T00:39:58;8.90;99.90
18506;DHT22;9382;53.242;10.438;2023-11-21T00:42:42;8.80;99.90
18506;DHT22;9382;53.242;10.438;2023-11-21T00:45:30;8.60;99.90
18506;DHT22;9382;53.242;10.438;2023-11-21T00:48:12;8.60;99.90
18506;DHT22;9382;53.242;10.438;2023-11-21T00:50:55;8.60;99.90
18506;DHT22;9382;53.242;10.438;2023-11-21T00:53:49;8.50;99.90
18506;DHT22;9382;53.242;10.438;2023-11-21T00:56:24;8.60;99.90
18506;DHT22;9382;53.242;10.438;2023-11-21T00:58:52;8.50;99.90
18506;DHT22;9382;53.242;10.438;2023-11-21T01:01:23;8.50;99.90
18506;DHT22;9382;53.242;10.438;2023-11-21T01:03:51;8.50;99.90
18506;DHT22;9382;53.242;10.438;2023-11-21T01:06:19;8.60;99.90
18506;DHT22;9382;53.242;10.438;2023-11-21T01:08:50;8.50;99.90
18506;DHT22;9382;53.242;10.438;2023-11-21T01:11:19;8.60;99.90
18506;DHT22;9382;53.242;10.438;2023-11-21T01:13:51;8.50;99.90
18506;DHT22;9382;53.242;10.438;2023-11-21T01:16:23;8.50;99.90
18506;DHT22;9382;53.242;10.438;2023-11-21T01:18:52;8.40;99.90
18506;DHT22;9382;53.242;10.438;2023-11-21T01:21:25;8.30;99.90
18506;DHT22;9382;53.242;10.438;2023-11-21T01:23:53;8.30;99.90
18506;DHT22;9382;53.242;10.438;2023-11-21T01:26:36;8.40;99.90
18506;DHT22;9382;53.242;10.438;2023-11-21T01:29:21;8.30;99.90
18506;DHT22;9382;53.242;10.438;2023-11-21T01:35:05;8.20;99.90
18506;DHT22;9382;53.242;10.438;2023-11-21T01:37:36;8.10;99.90
18506;DHT22;9382;53.242;10.438;2023-11-21T01:40:13;8.10;99.90
18506;DHT22;9382;53.242;10.438;2023-11-21T01:42:41;8.10;99.90
18506;DHT22;9382;53.242;10.438;2023-11-21T01:45:14;8.00;99.90
18506;DHT22;9382;53.242;10.438;2023-11-21T01:47:50;8.00;99.90
18506;DHT22;9382;53.242;10.438;2023-11-21T01:50:23;8.00;99.90
18506;DHT22;9382;53.242;10.438;2023-11-21T01:53:03;7.90;99.90
18506;DHT22;9382;53.242;10.438;2023-11-21T01:55:33;7.90;99.90
18506;DHT22;9382;53.242;10.438;2023-11-21T01:58:06;7.90;99.90
18506;DHT22;9382;53.242;10.438;2023-11-21T02:00:33;7.90;99.90
18506;DHT22;9382;53.242;10.438;2023-11-21T02:03:06;7.90;99.90
18506;DHT22;9382;53.242;10.438;2023-11-21T02:05:39;7.80;99.90
18506;DHT22;9382;53.242;10.438;2023-11-21T02:08:12;7.70;99.90
18506;DHT22;9382;53.242;10.438;2023-11-21T02:10:45;7.70;99.90
18506;DHT22;9382;53.242;10.438;2023-11-21T02:13:16;7.70;99.90
18506;DHT22;9382;53.242;10.438;2023-11-21T02:15:47;7.80;99.90
18506;DHT22;9382;53.242;10.438;2023-11-21T02:18:36;7.60;99.90
18506;DHT22;9382;53.242;10.438;2023-11-21T02:21:27;7.60;99.90
18506;DHT22;9382;53.242;10.438;2023-11-21T02:24:00;7.50;99.90
18506;DHT22;9382;53.242;10.438;2023-11-21T02:26:35;7.50;99.90
18506;DHT22;9382;53.242;10.438;2023-11-21T02:29:05;7.40;99.90
18506;DHT22;9382;53.242;10.438;2023-11-21T02:31:46;7.40;99.90
18506;DHT22;9382;53.242;10.438;2023-11-21T02:34:17;7.40;99.90
18506;DHT22;9382;53.242;10.438;2023-11-21T02:36:47;7.30;99.90
18506;DHT22;9382;53.242;10.438;2023-11-21T02:39:17;7.30;99.90
18506;DHT22;9382;53.242;10.438;2023-11-21T02:41:49;7.30;99.90
18506;DHT22;9382;53.242;10.438;2023-11-21T02:44:16;7.20;99.90
18506;DHT22;9382;53.242;10.438;2023-11-21T02:46:43;7.10;99.90
18506;DHT22;9382;53.242;10.438;2023-11-21T02:49:10;7.10;99.90
18506;DHT22;9382;53.242;10.438;2023-11-21T02:51:37;7.00;99.90
18506;DHT22;9382;53.242;10.438;2023-11-21T02:54:05;7.00;99.90
18506;DHT22;9382;53.242;10.438;2023-11-21T02:56:38;7.10;99.90
18506;DHT22;9382;53.242;10.438;2023-11-21T02:59:08;7.10;99.90
18506;DHT22;9382;53.242;10.438;2023-11-21T03:01:35;7.00;99.90
18506;DHT22;9382;53.242;10.438;2023-11-21T03:04:04;6.90;99.90
18506;DHT22;9382;53.242;10.438;2023-11-21T03:06:37;6.90;99.90
18506;DHT22;9382;53.242;10.438;2023-11-21T03:09:04;6.90;99.90
18506;DHT22;9382;53.242;10.438;2023-11-21T03:11:32;6.90;99.90
18506;DHT22;9382;53.242;10.438;2023-11-21T03:14:00;6.80;99.90
18506;DHT22;9382;53.242;10.438;2023-11-21T03:16:27;6.80;99.90
18506;DHT22;9382;53.242;10.438;2023-11-21T03:18:54;6.80;99.90
18506;DHT22;9382;53.242;10.438;2023-11-21T03:21:21;6.80;99.90
18506;DHT22;9382;53.242;10.438;2023-11-21T03:23:48;6.80;99.90
18506;DHT22;9382;53.242;10.438;2023-11-21T03:26:37;6.80;99.90
18506;DHT22;9382;53.242;10.438;2023-11-21T03:29:06;6.80;99.90
18506;DHT22;9382;53.242;10.438;2023-11-21T03:31:34;6.80;99.90
18506;DHT22;9382;53.242;10.438;2023-11-21T03:34:01;6.70;99.90
18506;DHT22;9382;53.242;10.438;2023-11-21T03:36:29;6.70;99.90
18506;DHT22;9382;53.242;10.438;2023-11-21T03:38:56;6.70;99.90
18506;DHT22;9382;53.242;10.438;2023-11-21T03:41:27;6.70;99.90
18506;DHT22;9382;53.242;10.438;2023-11-21T03:43:56;6.70;99.90
18506;DHT22;9382;53.242;10.438;2023-11-21T03:46:23;6.60;99.90
18506;DHT22;9382;53.242;10.438;2023-11-21T03:48:50;6.70;99.90
18506;DHT22;9382;53.242;10.438;2023-11-21T03:51:19;6.70;99.90
18506;DHT22;9382;53.242;10.438;2023-11-21T03:53:47;6.60;99.90
18506;DHT22;9382;53.242;10.438;2023-11-21T03:56:16;6.60;99.90
18506;DHT22;9382;53.242;10.438;2023-11-21T03:58:49;6.50;99.90
18506;DHT22;9382;53.242;10.438;2023-11-21T04:01:24;6.50;99.90
18506;DHT22;9382;53.242;10.438;2023-11-21T04:03:54;6.50;99.90
18506;DHT22;9382;53.242;10.438;2023-11-21T04:06:24;6.50;99.90
18506;DHT22;9382;53.242;10.438;2023-11-21T04:08:52;6.50;99.90
18506;DHT22;9382;53.242;10.438;2023-11-21T04:11:19;6.50;99.90
18506;DHT22;9382;53.242;10.438;2023-11-21T04:13:46;6.40;99.90
18506;DHT22;9382;53.242;10.438;2023-11-21T04:16:12;6.40;99.90
18506;DHT22;9382;53.242;10.438;2023-11-21T04:18:48;6.40;99.90
18506;DHT22;9382;53.242;10.438;2023-11-21T04:21:22;6.50;99.90
18506;DHT22;9382;53.242;10.438;2023-11-21T04:23:53;6.50;99.90
18506;DHT22;9382;53.242;10.438;2023-11-21T04:26:32;6.50;99.90
18506;DHT22;9382;53.242;10.438;2023-11-21T04:29:00;6.50;99.90
18506;DHT22;9382;53.242;10.438;2023-11-21T04:31:27;6.50;99.90
18506;DHT22;9382;53.242;10.438;2023-11-21T04:33:57;6.50;99.90
18506;DHT22;9382;53.242;10.438;2023-11-21T04:36:29;6.50;99.90
18506;DHT22;9382;53.242;10.438;2023-11-21T04:38:57;6.50;99.90
18506;DHT22;9382;53.242;10.438;2023-11-21T04:41:24;6.50;99.90
18506;DHT22;9382;53.242;10.438;2023-11-21T04:43:58;6.50;99.90
18506;DHT22;9382;53.242;10.438;2023-11-21T04:46:29;6.50;99.90
18506;DHT22;9382;53.242;10.438;2023-11-21T04:48:57;6.50;99.90
18506;DHT22;9382;53.242;10.438;2023-11-21T04:51:24;6.50;99.90
18506;DHT22;9382;53.242;10.438;2023-11-21T04:53:57;6.40;99.90
18506;DHT22;9382;53.242;10.438;2023-11-21T04:56:27;6.40;99.90
18506;DHT22;9382;53.242;10.438;2023-11-21T04:58:57;6.40;99.90
18506;DHT22;9382;53.242;10.438;2023-11-21T05:01:29;6.40;99.90
18506;DHT22;9382;53.242;10.438;2023-11-21T05:04:00;6.40;99.90
18506;DHT22;9382;53.242;10.438;2023-11-21T05:06:30;6.40;99.90
18506;DHT22;9382;53.242;10.438;2023-11-21T05:08:56;6.40;99.90
18506;DHT22;9382;53.242;10.438;2023-11-21T05:11:24;6.40;99.90
18506;DHT22;9382;53.242;10.438;2023-11-21T05:13:54;6.40;99.90
18506;DHT22;9382;53.242;10.438;2023-11-21T05:16:30;6.40;99.90
18506;DHT22;9382;53.242;10.438;2023-11-21T05:19:02;6.30;99.90
18506;DHT22;9382;53.242;10.438;2023-11-21T05:21:36;6.30;99.90
18506;DHT22;9382;53.242;10.438;2023-11-21T05:24:07;6.40;99.90
18506;DHT22;9382;53.242;10.438;2023-11-21T05:26:35;6.30;99.90
18506;DHT22;9382;53.242;10.438;2023-11-21T05:29:06;6.30;99.90
18506;DHT22;9382;53.242;10.438;2023-11-21T05:31:45;6.30;99.90
18506;DHT22;9382;53.242;10.438;2023-11-21T05:34:20;6.20;99.90
18506;DHT22;9382;53.242;10.438;2023-11-21T05:36:51;6.20;99.90
18506;DHT22;9382;53.242;10.438;2023-11-21T05:39:19;6.20;99.90
18506;DHT22;9382;53.242;10.438;2023-11-21T05:41:47;6.20;99.90
18506;DHT22;9382;53.242;10.438;2023-11-21T05:44:18;6.10;99.90
18506;DHT22;9382;53.242;10.438;2023-11-21T05:46:51;6.10;99.90
18506;DHT22;9382;53.242;10.438;2023-11-21T05:49:34;6.10;99.90
18506;DHT22;9382;53.242;10.438;2023-11-21T05:52:07;6.00;99.90
18506;DHT22;9382;53.242;10.438;2023-11-21T05:54:38;6.10;99.90
18506;DHT22;9382;53.242;10.438;2023-11-21T05:57:05;6.00;99.90
18506;DHT22;9382;53.242;10.438;2023-11-21T05:59:48;6.00;99.90
18506;DHT22;9382;53.242;10.438;2023-11-21T06:02:15;6.00;99.90
18506;DHT22;9382;53.242;10.438;2023-11-21T06:04:45;6.00;99.90
18506;DHT22;9382;53.242;10.438;2023-11-21T06:07:19;6.00;99.90
18506;DHT22;9382;53.242;10.438;2023-11-21T06:09:48;6.00;99.90
18506;DHT22;9382;53.242;10.438;2023-11-21T06:12:17;6.00;99.90
18506;DHT22;9382;53.242;10.438;2023-11-21T06:14:53;6.00;99.90
18506;DHT22;9382;53.242;10.438;2023-11-21T06:17:21;6.00;99.90
18506;DHT22;9382;53.242;10.438;2023-11-21T06:19:55;5.90;99.90
18506;DHT22;9382;53.242;10.438;2023-11-21T06:22:24;5.90;99.90
18506;DHT22;9382;53.242;10.438;2023-11-21T06:25:04;5.80;99.90
18506;DHT22;9382;53.242;10.438;2023-11-21T06:27:33;5.80;99.90
18506;DHT22;9382;53.242;10.438;2023-11-21T06:30:01;5.90;99.90
18506;DHT22;9382;53.242;10.438;2023-11-21T06:32:30;5.90;99.90
18506;DHT22;9382;53.242;10.438;2023-11-21T06:35:02;5.90;99.90
18506;DHT22;9382;53.242;10.438;2023-11-21T06:37:34;6.00;99.90
18506;DHT22;9382;53.242;10.438;2023-11-21T06:40:10;6.00;99.90
18506;DHT22;9382;53.242;10.438;2023-11-21T06:43:08;6.00;99.90
18506;DHT22;9382;53.242;10.438;2023-11-21T06:45:52;6.00;99.90
18506;DHT22;9382;53.242;10.438;2023-11-21T06:48:35;6.00;99.90
18506;DHT22;9382;53.242;10.438;2023-11-21T06:51:20;6.00;99.90
18506;DHT22;9382;53.242;10.438;2023-11-21T06:56:55;6.00;99.90
18506;DHT22;9382;53.242;10.438;2023-11-21T06:59:38;6.00;99.90
18506;DHT22;9382;53.242;10.438;2023-11-21T07:05:32;6.00;99.90
18506;DHT22;9382;53.242;10.438;2023-11-21T07:08:18;6.00;99.90
18506;DHT22;9382;53.242;10.438;2023-11-21T07:13:33;6.00;99.90
18506;DHT22;9382;53.242;10.438;2023-11-21T07:16:07;6.10;99.90
18506;DHT22;9382;53.242;10.438;2023-11-21T07:18:38;6.10;99.90
18506;DHT22;9382;53.242;10.438;2023-11-21T07:21:11;6.10;99.90
18506;DHT22;9382;53.242;10.438;2023-11-21T07:23:54;6.20;99.90
18506;DHT22;9382;53.242;10.438;2023-11-21T07:26:25;6.20;99.90
18506;DHT22;9382;53.242;10.438;2023-11-21T07:28:59;6.20;99.90
18506;DHT22;9382;53.242;10.438;2023-11-21T07:31:32;6.10;99.90
18506;DHT22;9382;53.242;10.438;2023-11-21T07:34:08;6.20;99.90
18506;DHT22;9382;53.242;10.438;2023-11-21T07:36:37;6.20;99.90
18506;DHT22;9382;53.242;10.438;2023-11-21T07:39:05;6.20;99.90
18506;DHT22;9382;53.242;10.438;2023-11-21T07:41:32;6.20;99.90
18506;DHT22;9382;53.242;10.438;2023-11-21T07:43:59;6.30;99.90
18506;DHT22;9382;53.242;10.438;2023-11-21T07:46:26;6.20;99.90
18506;DHT22;9382;53.242;10.438;2023-11-21T07:48:53;6.20;99.90
18506;DHT22;9382;53.242;10.438;2023-11-21T07:51:26;6.20;99.90
18506;DHT22;9382;53.242;10.438;2023-11-21T07:53:54;6.20;99.90
18506;DHT22;9382;53.242;10.438;2023-11-21T07:56:22;6.30;99.90
18506;DHT22;9382;53.242;10.438;2023-11-21T07:58:49;6.30;99.90
18506;DHT22;9382;53.242;10.438;2023-11-21T08:01:16;6.30;99.90
18506;DHT22;9382;53.242;10.438;2023-11-21T08:03:43;6.30;99.90
18506;DHT22;9382;53.242;10.438;2023-11-21T08:06:10;6.40;99.90
18506;DHT22;9382;53.242;10.438;2023-11-21T08:08:37;6.40;99.90
18506;DHT22;9382;53.242;10.438;2023-11-21T08:11:04;6.40;99.90
18506;DHT22;9382;53.242;10.438;2023-11-21T08:13:35;6.50;99.90
18506;DHT22;9382;53.242;10.438;2023-11-21T08:16:01;6.50;99.90
18506;DHT22;9382;53.242;10.438;2023-11-21T08:18:30;6.50;99.90
18506;DHT22;9382;53.242;10.438;2023-11-21T08:20:57;6.50;99.90
18506;DHT22;9382;53.242;10.438;2023-11-21T08:23:24;6.50;99.90
18506;DHT22;9382;53.242;10.438;2023-11-21T08:25:53;6.50;99.90
18506;DHT22;9382;53.242;10.438;2023-11-21T08:28:21;6.50;99.90
18506;DHT22;9382;53.242;10.438;2023-11-21T08:30:50;6.60;99.90
18506;DHT22;9382;53.242;10.438;2023-11-21T08:33:16;6.60;99.90
18506;DHT22;9382;53.242;10.438;2023-11-21T08:35:44;6.60;99.90
18506;DHT22;9382;53.242;10.438;2023-11-21T08:38:11;6.60;99.90
18506;DHT22;9382;53.242;10.438;2023-11-21T08:40:38;6.70;99.90
18506;DHT22;9382;53.242;10.438;2023-11-21T08:43:05;6.60;99.90
18506;DHT22;9382;53.242;10.438;2023-11-21T08:45:34;6.60;99.90
18506;DHT22;9382;53.242;10.438;2023-11-21T08:48:02;6.70;99.90
18506;DHT22;9382;53.242;10.438;2023-11-21T08:50:29;6.70;99.90
18506;DHT22;9382;53.242;10.438;2023-11-21T08:52:56;6.70;99.90
18506;DHT22;9382;53.242;10.438;2023-11-21T08:55:23;6.80;99.90
18506;DHT22;9382;53.242;10.438;2023-11-21T08:57:50;6.80;99.90
18506;DHT22;9382;53.242;10.438;2023-11-21T09:00:17;6.80;99.90
18506;DHT22;9382;53.242;10.438;2023-11-21T09:02:45;6.90;99.90
18506;DHT22;9382;53.242;10.438;2023-11-21T09:05:15;6.90;99.90
18506;DHT22;9382;53.242;10.438;2023-11-21T09:07:42;7.00;99.90
18506;DHT22;9382;53.242;10.438;2023-11-21T09:10:13;7.00;99.90
18506;DHT22;9382;53.242;10.438;2023-11-21T09:12:40;7.10;99.90
18506;DHT22;9382;53.242;10.438;2023-11-21T09:15:09;7.10;99.90
18506;DHT22;9382;53.242;10.438;2023-11-21T09:17:37;7.20;99.90
18506;DHT22;9382;53.242;10.438;2023-11-21T09:20:05;7.20;99.90
18506;DHT22;9382;53.242;10.438;2023-11-21T09:22:36;7.20;99.90
18506;DHT22;9382;53.242;10.438;2023-11-21T09:25:04;7.20;99.90
18506;DHT22;9382;53.242;10.438;2023-11-21T09:27:31;7.20;99.90
18506;DHT22;9382;53.242;10.438;2023-11-21T09:30:00;7.30;99.90
18506;DHT22;9382;53.242;10.438;2023-11-21T09:32:34;7.40;99.90
18506;DHT22;9382;53.242;10.438;2023-11-21T09:35:02;7.50;99.90
18506;DHT22;9382;53.242;10.438;2023-11-21T09:37:31;7.50;99.90
18506;DHT22;9382;53.242;10.438;2023-11-21T09:40:00;7.60;99.90
18506;DHT22;9382;53.242;10.438;2023-11-21T09:42:32;7.60;99.90
18506;DHT22;9382;53.242;10.438;2023-11-21T09:45:05;7.50;99.90
18506;DHT22;9382;53.242;10.438;2023-11-21T09:47:37;7.60;99.90
18506;DHT22;9382;53.242;10.438;2023-11-21T09:50:11;7.60;99.90
18506;DHT22;9382;53.242;10.438;2023-11-21T09:52:48;7.70;99.90
18506;DHT22;9382;53.242;10.438;2023-11-21T09:55:18;7.80;99.90
18506;DHT22;9382;53.242;10.438;2023-11-21T09:57:47;7.90;99.90
18506;DHT22;9382;53.242;10.438;2023-11-21T10:00:22;8.00;99.90
18506;DHT22;9382;53.242;10.438;2023-11-21T10:02:53;8.10;99.90
18506;DHT22;9382;53.242;10.438;2023-11-21T10:05:19;8.10;99.90
18506;DHT22;9382;53.242;10.438;2023-11-21T10:07:49;8.10;99.90
18506;DHT22;9382;53.242;10.438;2023-11-21T10:10:20;8.20;99.90
18506;DHT22;9382;53.242;10.438;2023-11-21T10:12:50;8.10;99.90
18506;DHT22;9382;53.242;10.438;2023-11-21T10:15:22;8.10;99.90
18506;DHT22;9382;53.242;10.438;2023-11-21T10:17:51;8.20;99.90
18506;DHT22;9382;53.242;10.438;2023-11-21T10:20:19;8.10;99.90
18506;DHT22;9382;53.242;10.438;2023-11-21T10:22:46;8.00;99.90
18506;DHT22;9382;53.242;10.438;2023-11-21T10:25:15;7.90;99.90
18506;DHT22;9382;53.242;10.438;2023-11-21T10:27:49;8.00;99.90
18506;DHT22;9382;53.242;10.438;2023-11-21T10:30:17;8.00;99.90
18506;DHT22;9382;53.242;10.438;2023-11-21T10:32:44;8.00;99.90
18506;DHT22;9382;53.242;10.438;2023-11-21T10:35:12;7.90;99.90
18506;DHT22;9382;53.242;10.438;2023-11-21T10:37:40;8.00;99.90
18506;DHT22;9382;53.242;10.438;2023-11-21T10:40:12;7.90;99.90
18506;DHT22;9382;53.242;10.438;2023-11-21T10:42:39;7.90;99.90
18506;DHT22;9382;53.242;10.438;2023-11-21T10:45:09;7.90;99.90
18506;DHT22;9382;53.242;10.438;2023-11-21T10:47:39;8.00;99.90
18506;DHT22;9382;53.242;10.438;2023-11-21T10:50:06;8.10;99.90
18506;DHT22;9382;53.242;10.438;2023-11-21T10:52:36;8.00;99.90
18506;DHT22;9382;53.242;10.438;2023-11-21T10:55:16;8.10;99.90
18506;DHT22;9382;53.242;10.438;2023-11-21T10:57:49;8.20;99.90
18506;DHT22;9382;53.242;10.438;2023-11-21T11:00:20;8.30;99.90
18506;DHT22;9382;53.242;10.438;2023-11-21T11:02:50;8.40;99.90
18506;DHT22;9382;53.242;10.438;2023-11-21T11:05:23;8.30;99.90
18506;DHT22;9382;53.242;10.438;2023-11-21T11:08:04;8.20;99.90
18506;DHT22;9382;53.242;10.438;2023-11-21T11:10:32;8.10;99.90
18506;DHT22;9382;53.242;10.438;2023-11-21T11:13:02;8.00;99.90
18506;DHT22;9382;53.242;10.438;2023-11-21T11:15:30;7.90;99.90
18506;DHT22;9382;53.242;10.438;2023-11-21T11:17:57;7.80;99.90
18506;DHT22;9382;53.242;10.438;2023-11-21T11:20:27;7.80;99.90
18506;DHT22;9382;53.242;10.438;2023-11-21T11:23:11;7.80;99.90
18506;DHT22;9382;53.242;10.438;2023-11-21T11:25:52;8.00;99.90
18506;DHT22;9382;53.242;10.438;2023-11-21T11:28:22;8.10;99.90
18506;DHT22;9382;53.242;10.438;2023-11-21T11:31:00;8.30;99.90
18506;DHT22;9382;53.242;10.438;2023-11-21T11:33:36;8.40;99.90
18506;DHT22;9382;53.242;10.438;2023-11-21T11:36:10;8.60;99.90
18506;DHT22;9382;53.242;10.438;2023-11-21T11:38:45;8.60;99.90
18506;DHT22;9382;53.242;10.438;2023-11-21T11:41:25;8.70;99.90
18506;DHT22;9382;53.242;10.438;2023-11-21T11:43:52;8.60;99.90
18506;DHT22;9382;53.242;10.438;2023-11-21T11:46:20;8.60;99.90
18506;DHT22;9382;53.242;10.438;2023-11-21T11:48:48;8.50;99.90
18506;DHT22;9382;53.242;10.438;2023-11-21T11:51:30;8.40;99.90
18506;DHT22;9382;53.242;10.438;2023-11-21T11:53:57;8.20;99.90
18506;DHT22;9382;53.242;10.438;2023-11-21T11:56:26;8.00;99.90
18506;DHT22;9382;53.242;10.438;2023-11-21T11:58:55;7.80;99.90
18506;DHT22;9382;53.242;10.438;2023-11-21T12:01:25;7.60;99.90
18506;DHT22;9382;53.242;10.438;2023-11-21T12:04:23;7.60;99.90
18506;DHT22;9382;53.242;10.438;2023-11-21T12:06:56;7.60;99.90
18506;DHT22;9382;53.242;10.438;2023-11-21T12:09:25;7.70;99.90
18506;DHT22;9382;53.242;10.438;2023-11-21T12:11:53;7.60;99.90
18506;DHT22;9382;53.242;10.438;2023-11-21T12:14:22;7.60;99.90
18506;DHT22;9382;53.242;10.438;2023-11-21T12:16:50;7.50;99.90
18506;DHT22;9382;53.242;10.438;2023-11-21T12:19:19;7.30;99.90
18506;DHT22;9382;53.242;10.438;2023-11-21T12:21:46;7.20;99.90
18506;DHT22;9382;53.242;10.438;2023-11-21T12:24:14;7.10;99.90
18506;DHT22;9382;53.242;10.438;2023-11-21T12:26:42;7.00;99.90
18506;DHT22;9382;53.242;10.438;2023-11-21T12:29:09;7.00;99.90
18506;DHT22;9382;53.242;10.438;2023-11-21T12:31:36;7.00;99.90
18506;DHT22;9382;53.242;10.438;2023-11-21T12:34:04;7.00;99.90
18506;DHT22;9382;53.242;10.438;2023-11-21T12:36:32;7.00;99.90
18506;DHT22;9382;53.242;10.438;2023-11-21T12:39:00;7.10;99.90
18506;DHT22;9382;53.242;10.438;2023-11-21T12:41:28;7.00;99.90
18506;DHT22;9382;53.242;10.438;2023-11-21T12:43:56;7.00;99.90
18506;DHT22;9382;53.242;10.438;2023-11-21T12:46:23;7.10;99.90
18506;DHT22;9382;53.242;10.438;2023-11-21T12:48:51;7.20;99.90
18506;DHT22;9382;53.242;10.438;2023-11-21T12:51:21;7.20;99.90
18506;DHT22;9382;53.242;10.438;2023-11-21T12:53:48;7.30;99.90
18506;DHT22;9382;53.242;10.438;2023-11-21T12:56:15;7.20;99.90
18506;DHT22;9382;53.242;10.438;2023-11-21T12:58:44;7.20;99.90
18506;DHT22;9382;53.242;10.438;2023-11-21T13:01:13;7.20;99.90
18506;DHT22;9382;53.242;10.438;2023-11-21T13:03:45;7.10;99.90
18506;DHT22;9382;53.242;10.438;2023-11-21T13:06:14;7.10;99.90
18506;DHT22;9382;53.242;10.438;2023-11-21T13:08:44;7.00;99.90
18506;DHT22;9382;53.242;10.438;2023-11-21T13:11:11;7.00;99.90
18506;DHT22;9382;53.242;10.438;2023-11-21T13:13:41;6.90;99.90
18506;DHT22;9382;53.242;10.438;2023-11-21T13:16:08;6.90;99.90
18506;DHT22;9382;53.242;10.438;2023-11-21T13:18:35;6.80;99.90
18506;DHT22;9382;53.242;10.438;2023-11-21T13:21:03;6.70;99.90
18506;DHT22;9382;53.242;10.438;2023-11-21T13:23:35;6.70;99.90
18506;DHT22;9382;53.242;10.438;2023-11-21T13:26:06;6.60;99.90
18506;DHT22;9382;53.242;10.438;2023-11-21T13:28:36;6.60;99.90
18506;DHT22;9382;53.242;10.438;2023-11-21T13:31:04;6.60;99.90
18506;DHT22;9382;53.242;10.438;2023-11-21T13:33:46;6.50;99.90
18506;DHT22;9382;53.242;10.438;2023-11-21T13:36:18;6.50;99.90
18506;DHT22;9382;53.242;10.438;2023-11-21T13:38:48;6.60;99.90
18506;DHT22;9382;53.242;10.438;2023-11-21T13:41:16;6.60;99.90
18506;DHT22;9382;53.242;10.438;2023-11-21T13:43:43;6.60;99.90
18506;DHT22;9382;53.242;10.438;2023-11-21T13:46:16;6.60;99.90
18506;DHT22;9382;53.242;10.438;2023-11-21T13:48:48;6.70;99.90
18506;DHT22;9382;53.242;10.438;2023-11-21T13:51:21;6.80;99.90
18506;DHT22;9382;53.242;10.438;2023-11-21T13:53:57;6.80;99.90
18506;DHT22;9382;53.242;10.438;2023-11-21T13:56:26;6.80;99.90
18506;DHT22;9382;53.242;10.438;2023-11-21T13:58:54;6.80;99.90
18506;DHT22;9382;53.242;10.438;2023-11-21T14:01:26;6.80;99.90
18506;DHT22;9382;53.242;10.438;2023-11-21T14:04:13;6.80;99.90
18506;DHT22;9382;53.242;10.438;2023-11-21T14:06:46;6.80;99.90
18506;DHT22;9382;53.242;10.438;2023-11-21T14:09:15;6.70;99.90
18506;DHT22;9382;53.242;10.438;2023-11-21T14:11:50;6.70;99.90
18506;DHT22;9382;53.242;10.438;2023-11-21T14:14:18;6.70;99.90
18506;DHT22;9382;53.242;10.438;2023-11-21T14:16:45;6.70;99.90
18506;DHT22;9382;53.242;10.438;2023-11-21T14:19:12;6.60;99.90
18506;DHT22;9382;53.242;10.438;2023-11-21T14:21:43;6.50;99.90
18506;DHT22;9382;53.242;10.438;2023-11-21T14:24:11;6.50;99.90
18506;DHT22;9382;53.242;10.438;2023-11-21T14:26:40;6.50;99.90
18506;DHT22;9382;53.242;10.438;2023-11-21T14:29:09;6.50;99.90
18506;DHT22;9382;53.242;10.438;2023-11-21T14:31:40;6.40;99.90
18506;DHT22;9382;53.242;10.438;2023-11-21T14:34:07;6.40;99.90
18506;DHT22;9382;53.242;10.438;2023-11-21T14:36:35;6.40;99.90
18506;DHT22;9382;53.242;10.438;2023-11-21T14:39:02;6.40;99.90
18506;DHT22;9382;53.242;10.438;2023-11-21T14:41:32;6.40;99.90
18506;DHT22;9382;53.242;10.438;2023-11-21T14:44:04;6.30;99.90
18506;DHT22;9382;53.242;10.438;2023-11-21T14:46:34;6.30;99.90
18506;DHT22;9382;53.242;10.438;2023-11-21T14:49:04;6.20;99.90
18506;DHT22;9382;53.242;10.438;2023-11-21T14:51:44;6.20;99.90
18506;DHT22;9382;53.242;10.438;2023-11-21T14:54:26;6.20;99.90
18506;DHT22;9382;53.242;10.438;2023-11-21T14:57:06;6.20;99.90
18506;DHT22;9382;53.242;10.438;2023-11-21T14:59:35;6.20;99.90
18506;DHT22;9382;53.242;10.438;2023-11-21T15:02:06;6.20;99.90
18506;DHT22;9382;53.242;10.438;2023-11-21T15:04:41;6.20;99.90
18506;DHT22;9382;53.242;10.438;2023-11-21T15:07:09;6.20;99.90
18506;DHT22;9382;53.242;10.438;2023-11-21T15:09:36;6.20;99.90
18506;DHT22;9382;53.242;10.438;2023-11-21T15:12:08;6.20;99.90
18506;DHT22;9382;53.242;10.438;2023-11-21T15:14:44;6.20;99.90
18506;DHT22;9382;53.242;10.438;2023-11-21T15:17:15;6.10;99.90
18506;DHT22;9382;53.242;10.438;2023-11-21T15:19:48;6.10;99.90
18506;DHT22;9382;53.242;10.438;2023-11-21T15:22:15;6.10;99.90
18506;DHT22;9382;53.242;10.438;2023-11-21T15:24:42;6.00;99.90
18506;DHT22;9382;53.242;10.438;2023-11-21T15:27:12;6.00;99.90
18506;DHT22;9382;53.242;10.438;2023-11-21T15:29:39;6.00;99.90
18506;DHT22;9382;53.242;10.438;2023-11-21T15:32:06;6.00;99.90
18506;DHT22;9382;53.242;10.438;2023-11-21T15:34:35;6.00;99.90
18506;DHT22;9382;53.242;10.438;2023-11-21T15:37:03;6.00;99.90
18506;DHT22;9382;53.242;10.438;2023-11-21T15:39:31;6.00;99.90
18506;DHT22;9382;53.242;10.438;2023-11-21T15:41:58;6.00;99.90
18506;DHT22;9382;53.242;10.438;2023-11-21T15:44:26;6.10;99.90
18506;DHT22;9382;53.242;10.438;2023-11-21T15:46:54;6.10;99.90
18506;DHT22;9382;53.242;10.438;2023-11-21T15:49:21;6.10;99.90
18506;DHT22;9382;53.242;10.438;2023-11-21T15:51:49;6.10;99.90
18506;DHT22;9382;53.242;10.438;2023-11-21T15:54:21;6.10;99.90
18506;DHT22;9382;53.242;10.438;2023-11-21T15:56:58;6.00;99.90
18506;DHT22;9382;53.242;10.438;2023-11-21T15:59:26;6.00;99.90
18506;DHT22;9382;53.242;10.438;2023-11-21T16:01:56;5.90;99.90
18506;DHT22;9382;53.242;10.438;2023-11-21T16:04:26;5.90;99.90
18506;DHT22;9382;53.242;10.438;2023-11-21T16:06:55;5.90;99.90
18506;DHT22;9382;53.242;10.438;2023-11-21T16:09:22;5.90;99.90
18506;DHT22;9382;53.242;10.438;2023-11-21T16:11:56;6.00;99.90
18506;DHT22;9382;53.242;10.438;2023-11-21T16:14:26;5.90;99.90
18506;DHT22;9382;53.242;10.438;2023-11-21T16:16:59;5.90;99.90
18506;DHT22;9382;53.242;10.438;2023-11-21T16:19:26;5.80;99.90
18506;DHT22;9382;53.242;10.438;2023-11-21T16:21:57;5.80;99.90
18506;DHT22;9382;53.242;10.438;2023-11-21T16:24:23;5.80;99.90
18506;DHT22;9382;53.242;10.438;2023-11-21T16:26:53;5.80;99.90